This is the latest recevied weather packets stored in our database for station/object KP4DJT. If no packets are shown the sender has not sent any weather packets the latest 10 day(s).
| Time | Temp. | Humidity | Pressure | Rain* | Wind** | Luminosity | Snow |
|---|---|---|---|---|---|---|---|
| 1777404138 | 15° C | 74% | 1012.9 hPa | 0 mm | - | 604 W/m² | - |
| 1777402939 | 14.44° C | 74% | 1013.2 hPa | 0 mm | - | 416 W/m² | - |
| 1777400539 | 13.89° C | 76% | 1013.4 hPa | 0 mm | - | 264 W/m² | - |
| 1777398759 | 13.89° C | 76% | 1013.3 hPa | 0 mm | - | 308 W/m² | - |
| 1777396340 | 14.44° C | 75% | 1013.8 hPa | 0 mm | - | 194 W/m² | - |
| 1777390941 | 15° C | 75% | 1013.1 hPa | 0 mm | - | 286 W/m² | - |
| 1777389758 | 15° C | 74% | 1012.9 hPa | 0 mm | - | 124 W/m² | - |
| 1777387941 | 15° C | 76% | 1012.9 hPa | 0 mm | - | 150 W/m² | - |
| 1777384339 | 15.56° C | 76% | 1013.3 hPa | 0 mm | - | 77 W/m² | - |
| 1777383739 | 15.56° C | 75% | 1013.4 hPa | 0 mm | - | 46 W/m² | - |
| 1777381343 | 15.56° C | 78% | 1012.9 hPa | 0 mm | - | 32 W/m² | - |
| 1777380739 | 15.56° C | 78% | 1012.8 hPa | 0 mm | - | 45 W/m² | - |
| 1777379537 | 15.56° C | 79% | 1012.4 hPa | 0 mm | - | 28 W/m² | - |
| 1777377143 | 15.56° C | 79% | 1012.9 hPa | 0 mm | - | 2 W/m² | - |
| 1777375338 | 15.56° C | 79% | 1012.1 hPa | 0 mm | - | 0 W/m² | - |
| 1777373541 | 15.56° C | 79% | 1012.2 hPa | 0 mm | - | 0 W/m² | - |
| 1777372338 | 15.56° C | 79% | 1012.2 hPa | 0 mm | - | 0 W/m² | - |
| 1777365739 | 16.11° C | 79% | 1011.9 hPa | 0 mm | - | 0 W/m² | - |
| 1777363939 | 16.67° C | 78% | 1011.9 hPa | 0 mm | - | 0 W/m² | - |
| 1777363359 | 16.67° C | 78% | 1012 hPa | 0 mm | - | 0 W/m² | - |
| 1777359740 | 17.22° C | 74% | 1012.5 hPa | 0 mm | - | 0 W/m² | - |
| 1777359140 | 17.78° C | 73% | 1012.4 hPa | 0 mm | - | 0 W/m² | - |
| 1777358560 | 17.78° C | 73% | 1012.4 hPa | 0 mm | - | 0 W/m² | - |
| 1777354938 | 18.89° C | 68% | 1012.6 hPa | 0 mm | - | 0 W/m² | - |
| 1777347739 | 21.11° C | 60% | 1011.9 hPa | 0 mm | - | 0 W/m² | - |
* Rain latest hour (hover to see other rain measurements)
** Current wind speed in m/s (hover to see current wind gust speed)